sensor_id;sensor_type;location;lat;lon;timestamp;pressure;altitude;pressure_sealevel;temperature;humidity
26376;BME280;30544;42.196;24.336;2023-03-30T00:02:18;99785.81;;;6.73;nan
26376;BME280;30544;42.196;24.336;2023-03-30T00:04:47;99783.47;;;6.77;nan
26376;BME280;30544;42.196;24.336;2023-03-30T00:07:13;99779.03;;;6.76;nan
26376;BME280;30544;42.196;24.336;2023-03-30T00:09:40;99786.44;;;6.75;nan
26376;BME280;30544;42.196;24.336;2023-03-30T00:12:09;99782.19;;;6.59;nan
26376;BME280;30544;42.196;24.336;2023-03-30T00:14:36;99779.84;;;6.56;nan
26376;BME280;30544;42.196;24.336;2023-03-30T00:17:03;99776.41;;;6.54;nan
26376;BME280;30544;42.196;24.336;2023-03-30T00:19:30;99773.41;;;6.36;nan
26376;BME280;30544;42.196;24.336;2023-03-30T00:21:57;99770.91;;;6.48;nan
26376;BME280;30544;42.196;24.336;2023-03-30T00:24:23;99762.22;;;6.51;nan
26376;BME280;30544;42.196;24.336;2023-03-30T00:26:50;99766.25;;;6.48;nan
26376;BME280;30544;42.196;24.336;2023-03-30T00:29:18;99768.75;;;6.37;nan
26376;BME280;30544;42.196;24.336;2023-03-30T00:31:45;99764.53;;;6.41;nan
26376;BME280;30544;42.196;24.336;2023-03-30T00:34:12;99775.50;;;6.27;nan
26376;BME280;30544;42.196;24.336;2023-03-30T00:36:39;99775.59;;;5.99;nan
26376;BME280;30544;42.196;24.336;2023-03-30T00:39:06;99769.97;;;6.21;nan
26376;BME280;30544;42.196;24.336;2023-03-30T00:41:33;99763.09;;;6.03;nan
26376;BME280;30544;42.196;24.336;2023-03-30T00:44:01;99763.50;;;5.94;nan
26376;BME280;30544;42.196;24.336;2023-03-30T00:46:30;99762.09;;;6.11;nan
26376;BME280;30544;42.196;24.336;2023-03-30T00:48:59;99766.13;;;6.15;nan
26376;BME280;30544;42.196;24.336;2023-03-30T00:51:30;99758.50;;;6.17;nan
26376;BME280;30544;42.196;24.336;2023-03-30T00:54:01;99758.94;;;6.21;nan
26376;BME280;30544;42.196;24.336;2023-03-30T00:56:29;99754.91;;;6.10;nan
26376;BME280;30544;42.196;24.336;2023-03-30T00:58:56;99761.03;;;6.06;nan
26376;BME280;30544;42.196;24.336;2023-03-30T01:01:23;99753.78;;;6.04;nan
26376;BME280;30544;42.196;24.336;2023-03-30T01:03:54;99753.69;;;5.85;nan
26376;BME280;30544;42.196;24.336;2023-03-30T01:06:24;99751.25;;;6.03;nan
26376;BME280;30544;42.196;24.336;2023-03-30T01:08:54;99759.06;;;5.93;nan
26376;BME280;30544;42.196;24.336;2023-03-30T01:11:23;99758.41;;;5.91;nan
26376;BME280;30544;42.196;24.336;2023-03-30T01:13:55;99753.97;;;5.90;nan
26376;BME280;30544;42.196;24.336;2023-03-30T01:16:27;99756.22;;;5.86;nan
26376;BME280;30544;42.196;24.336;2023-03-30T01:19:07;99754.53;;;5.85;nan
26376;BME280;30544;42.196;24.336;2023-03-30T01:24:57;99757.91;;;5.87;nan
26376;BME280;30544;42.196;24.336;2023-03-30T01:28:01;99764.69;;;5.85;nan
26376;BME280;30544;42.196;24.336;2023-03-30T01:30:44;99765.31;;;5.80;nan
26376;BME280;30544;42.196;24.336;2023-03-30T01:33:35;99754.00;;;5.68;nan
26376;BME280;30544;42.196;24.336;2023-03-30T01:36:26;99766.72;;;5.69;nan
26376;BME280;30544;42.196;24.336;2023-03-30T01:39:20;99771.38;;;5.69;nan
26376;BME280;30544;42.196;24.336;2023-03-30T01:41:55;99771.16;;;5.70;nan
26376;BME280;30544;42.196;24.336;2023-03-30T01:44:30;99769.97;;;5.45;nan
26376;BME280;30544;42.196;24.336;2023-03-30T01:47:02;99774.72;;;5.58;nan
26376;BME280;30544;42.196;24.336;2023-03-30T01:49:37;99771.25;;;5.49;nan
26376;BME280;30544;42.196;24.336;2023-03-30T01:52:12;99748.81;;;5.18;nan
26376;BME280;30544;42.196;24.336;2023-03-30T01:54:45;99762.22;;;5.27;nan
26376;BME280;30544;42.196;24.336;2023-03-30T01:57:15;99770.63;;;5.47;nan
26376;BME280;30544;42.196;24.336;2023-03-30T01:59:50;99778.88;;;5.47;nan
26376;BME280;30544;42.196;24.336;2023-03-30T02:02:22;99776.97;;;5.48;nan
26376;BME280;30544;42.196;24.336;2023-03-30T02:04:51;99770.28;;;5.29;nan
26376;BME280;30544;42.196;24.336;2023-03-30T02:07:21;99776.88;;;5.34;nan
26376;BME280;30544;42.196;24.336;2023-03-30T02:09:53;99780.63;;;5.27;nan
26376;BME280;30544;42.196;24.336;2023-03-30T02:12:22;99777.44;;;5.23;nan
26376;BME280;30544;42.196;24.336;2023-03-30T02:14:50;99783.38;;;5.27;nan
26376;BME280;30544;42.196;24.336;2023-03-30T02:17:21;99787.19;;;5.26;nan
26376;BME280;30544;42.196;24.336;2023-03-30T02:19:49;99775.34;;;5.25;nan
26376;BME280;30544;42.196;24.336;2023-03-30T02:22:17;99777.25;;;5.25;nan
26376;BME280;30544;42.196;24.336;2023-03-30T02:24:47;99784.03;;;5.29;nan
26376;BME280;30544;42.196;24.336;2023-03-30T02:27:16;99783.38;;;5.27;nan
26376;BME280;30544;42.196;24.336;2023-03-30T02:29:44;99792.09;;;5.30;nan
26376;BME280;30544;42.196;24.336;2023-03-30T02:32:15;99782.56;;;5.33;nan
26376;BME280;30544;42.196;24.336;2023-03-30T02:34:52;99783.78;;;5.24;nan
26376;BME280;30544;42.196;24.336;2023-03-30T02:37:44;99792.25;;;5.22;nan
26376;BME280;30544;42.196;24.336;2023-03-30T02:40:29;99785.50;;;5.25;nan
26376;BME280;30544;42.196;24.336;2023-03-30T02:43:10;99786.28;;;5.19;nan
26376;BME280;30544;42.196;24.336;2023-03-30T02:45:50;99783.91;;;5.16;nan
26376;BME280;30544;42.196;24.336;2023-03-30T02:48:32;99787.97;;;5.20;nan
26376;BME280;30544;42.196;24.336;2023-03-30T02:51:15;99795.69;;;5.31;nan
26376;BME280;30544;42.196;24.336;2023-03-30T02:53:51;99804.09;;;5.23;nan
26376;BME280;30544;42.196;24.336;2023-03-30T02:56:23;99806.56;;;5.18;nan
26376;BME280;30544;42.196;24.336;2023-03-30T02:58:59;99805.06;;;5.15;nan
26376;BME280;30544;42.196;24.336;2023-03-30T03:01:34;99813.13;;;5.17;nan
26376;BME280;30544;42.196;24.336;2023-03-30T03:04:03;99808.88;;;5.14;nan
26376;BME280;30544;42.196;24.336;2023-03-30T03:06:30;99807.38;;;5.11;nan
26376;BME280;30544;42.196;24.336;2023-03-30T03:08:57;99803.53;;;5.06;nan
26376;BME280;30544;42.196;24.336;2023-03-30T03:11:25;99801.03;;;5.11;nan
26376;BME280;30544;42.196;24.336;2023-03-30T03:13:51;99824.00;;;4.82;nan
26376;BME280;30544;42.196;24.336;2023-03-30T03:16:21;99821.53;;;5.08;nan
26376;BME280;30544;42.196;24.336;2023-03-30T03:18:48;99823.88;;;5.11;nan
26376;BME280;30544;42.196;24.336;2023-03-30T03:21:15;99804.47;;;5.20;nan
26376;BME280;30544;42.196;24.336;2023-03-30T03:23:41;99807.94;;;5.28;nan
26376;BME280;30544;42.196;24.336;2023-03-30T03:26:09;99815.13;;;5.29;nan
26376;BME280;30544;42.196;24.336;2023-03-30T03:28:37;99806.19;;;5.21;nan
26376;BME280;30544;42.196;24.336;2023-03-30T03:31:03;99798.31;;;5.18;nan
26376;BME280;30544;42.196;24.336;2023-03-30T03:33:32;99799.38;;;5.17;nan
26376;BME280;30544;42.196;24.336;2023-03-30T03:35:59;99796.09;;;5.28;nan
26376;BME280;30544;42.196;24.336;2023-03-30T03:38:26;99806.00;;;5.22;nan
26376;BME280;30544;42.196;24.336;2023-03-30T03:40:55;99806.19;;;5.21;nan
26376;BME280;30544;42.196;24.336;2023-03-30T03:43:22;99808.75;;;5.22;nan
26376;BME280;30544;42.196;24.336;2023-03-30T03:45:50;99812.72;;;5.20;nan
26376;BME280;30544;42.196;24.336;2023-03-30T03:48:19;99821.66;;;5.22;nan
26376;BME280;30544;42.196;24.336;2023-03-30T03:50:50;99822.69;;;5.21;nan
26376;BME280;30544;42.196;24.336;2023-03-30T03:53:17;99815.44;;;5.13;nan
26376;BME280;30544;42.196;24.336;2023-03-30T03:55:44;99821.44;;;5.23;nan
26376;BME280;30544;42.196;24.336;2023-03-30T03:58:13;99820.94;;;5.13;nan
26376;BME280;30544;42.196;24.336;2023-03-30T04:00:41;99822.97;;;5.04;nan
26376;BME280;30544;42.196;24.336;2023-03-30T04:03:08;99823.16;;;5.03;nan
26376;BME280;30544;42.196;24.336;2023-03-30T04:05:36;99813.56;;;4.92;nan
26376;BME280;30544;42.196;24.336;2023-03-30T04:08:05;99811.56;;;4.86;nan
26376;BME280;30544;42.196;24.336;2023-03-30T04:10:35;99829.50;;;5.03;nan
26376;BME280;30544;42.196;24.336;2023-03-30T04:13:02;99832.94;;;5.05;nan
26376;BME280;30544;42.196;24.336;2023-03-30T04:15:28;99836.78;;;5.11;nan
26376;BME280;30544;42.196;24.336;2023-03-30T04:17:55;99838.72;;;5.17;nan
26376;BME280;30544;42.196;24.336;2023-03-30T04:20:24;99826.66;;;5.18;nan
26376;BME280;30544;42.196;24.336;2023-03-30T04:22:52;99845.00;;;5.32;nan
26376;BME280;30544;42.196;24.336;2023-03-30T04:25:21;99836.25;;;5.50;nan
26376;BME280;30544;42.196;24.336;2023-03-30T04:27:50;99835.47;;;5.56;nan
26376;BME280;30544;42.196;24.336;2023-03-30T04:30:18;99843.16;;;5.67;nan
26376;BME280;30544;42.196;24.336;2023-03-30T04:32:47;99849.09;;;5.71;nan
26376;BME280;30544;42.196;24.336;2023-03-30T04:35:27;99852.78;;;5.85;nan
26376;BME280;30544;42.196;24.336;2023-03-30T04:37:54;99851.66;;;6.00;nan
26376;BME280;30544;42.196;24.336;2023-03-30T04:40:23;99838.38;;;6.11;nan
26376;BME280;30544;42.196;24.336;2023-03-30T04:42:50;99846.22;;;6.14;nan
26376;BME280;30544;42.196;24.336;2023-03-30T04:45:18;99852.44;;;6.29;nan
26376;BME280;30544;42.196;24.336;2023-03-30T04:47:45;99853.94;;;6.38;nan
26376;BME280;30544;42.196;24.336;2023-03-30T04:50:12;99857.44;;;6.60;nan
26376;BME280;30544;42.196;24.336;2023-03-30T04:52:39;99868.69;;;6.65;nan
26376;BME280;30544;42.196;24.336;2023-03-30T04:55:06;99869.81;;;6.77;nan
26376;BME280;30544;42.196;24.336;2023-03-30T04:57:35;99869.41;;;6.93;nan
26376;BME280;30544;42.196;24.336;2023-03-30T05:00:04;99861.38;;;7.12;nan
26376;BME280;30544;42.196;24.336;2023-03-30T05:02:32;99875.84;;;7.27;nan
26376;BME280;30544;42.196;24.336;2023-03-30T05:04:59;99880.31;;;7.41;nan
26376;BME280;30544;42.196;24.336;2023-03-30T05:07:26;99875.00;;;7.60;nan
26376;BME280;30544;42.196;24.336;2023-03-30T05:09:52;99860.16;;;7.61;nan
26376;BME280;30544;42.196;24.336;2023-03-30T05:12:19;99865.44;;;7.75;nan
26376;BME280;30544;42.196;24.336;2023-03-30T05:14:47;99857.97;;;7.89;nan
26376;BME280;30544;42.196;24.336;2023-03-30T05:17:14;99866.47;;;8.07;nan
26376;BME280;30544;42.196;24.336;2023-03-30T05:19:41;99874.06;;;8.19;nan
26376;BME280;30544;42.196;24.336;2023-03-30T05:22:08;99877.88;;;8.31;nan
26376;BME280;30544;42.196;24.336;2023-03-30T05:24:34;99871.72;;;8.42;nan
26376;BME280;30544;42.196;24.336;2023-03-30T05:27:01;99871.50;;;8.43;nan
26376;BME280;30544;42.196;24.336;2023-03-30T05:29:29;99870.19;;;8.46;nan
26376;BME280;30544;42.196;24.336;2023-03-30T05:31:57;99873.28;;;8.69;nan
26376;BME280;30544;42.196;24.336;2023-03-30T05:34:24;99875.59;;;8.79;nan
26376;BME280;30544;42.196;24.336;2023-03-30T05:36:51;99873.41;;;8.88;nan
26376;BME280;30544;42.196;24.336;2023-03-30T05:39:18;99883.19;;;8.90;nan
26376;BME280;30544;42.196;24.336;2023-03-30T05:41:45;99876.81;;;8.83;nan
26376;BME280;30544;42.196;24.336;2023-03-30T05:44:12;99891.16;;;9.05;nan
26376;BME280;30544;42.196;24.336;2023-03-30T05:46:40;99883.69;;;9.12;nan
26376;BME280;30544;42.196;24.336;2023-03-30T05:49:08;99880.00;;;9.25;nan
26376;BME280;30544;42.196;24.336;2023-03-30T05:51:35;99886.31;;;9.32;nan
26376;BME280;30544;42.196;24.336;2023-03-30T05:54:04;99888.03;;;9.33;nan
26376;BME280;30544;42.196;24.336;2023-03-30T05:56:31;99887.31;;;9.44;nan
26376;BME280;30544;42.196;24.336;2023-03-30T05:58:58;99884.88;;;9.54;nan
26376;BME280;30544;42.196;24.336;2023-03-30T06:01:25;99862.94;;;9.53;nan
26376;BME280;30544;42.196;24.336;2023-03-30T06:03:51;99884.09;;;9.72;nan
26376;BME280;30544;42.196;24.336;2023-03-30T06:06:20;99884.03;;;9.79;nan
26376;BME280;30544;42.196;24.336;2023-03-30T06:08:47;99880.75;;;9.88;nan
26376;BME280;30544;42.196;24.336;2023-03-30T06:11:14;99890.00;;;10.01;nan
26376;BME280;30544;42.196;24.336;2023-03-30T06:13:41;99889.09;;;10.07;nan
26376;BME280;30544;42.196;24.336;2023-03-30T06:16:08;99898.81;;;10.16;nan
26376;BME280;30544;42.196;24.336;2023-03-30T06:18:35;99902.09;;;10.31;nan
26376;BME280;30544;42.196;24.336;2023-03-30T06:21:03;99856.25;;;10.10;nan
26376;BME280;30544;42.196;24.336;2023-03-30T06:23:33;99891.34;;;10.41;nan
26376;BME280;30544;42.196;24.336;2023-03-30T06:26:02;99893.19;;;10.47;nan
26376;BME280;30544;42.196;24.336;2023-03-30T06:28:29;99893.31;;;10.52;nan
26376;BME280;30544;42.196;24.336;2023-03-30T06:30:56;99898.59;;;10.61;nan
26376;BME280;30544;42.196;24.336;2023-03-30T06:33:25;99904.66;;;10.69;nan
26376;BME280;30544;42.196;24.336;2023-03-30T06:35:52;99912.59;;;10.66;nan
26376;BME280;30544;42.196;24.336;2023-03-30T06:38:20;99913.97;;;10.75;nan
26376;BME280;30544;42.196;24.336;2023-03-30T06:40:49;99918.44;;;10.94;nan
26376;BME280;30544;42.196;24.336;2023-03-30T06:43:17;99912.09;;;10.87;nan
26376;BME280;30544;42.196;24.336;2023-03-30T06:45:48;99913.50;;;10.96;nan
26376;BME280;30544;42.196;24.336;2023-03-30T06:48:16;99915.94;;;11.04;nan
26376;BME280;30544;42.196;24.336;2023-03-30T06:50:44;99916.22;;;11.14;nan
26376;BME280;30544;42.196;24.336;2023-03-30T06:53:11;99921.06;;;11.19;nan
26376;BME280;30544;42.196;24.336;2023-03-30T06:55:38;99925.19;;;11.17;nan
26376;BME280;30544;42.196;24.336;2023-03-30T06:58:06;99920.13;;;11.25;nan
26376;BME280;30544;42.196;24.336;2023-03-30T07:00:33;99914.13;;;11.28;nan
26376;BME280;30544;42.196;24.336;2023-03-30T07:03:00;99909.06;;;11.37;nan
26376;BME280;30544;42.196;24.336;2023-03-30T07:05:28;99902.34;;;11.44;nan
26376;BME280;30544;42.196;24.336;2023-03-30T07:07:55;99913.94;;;11.53;nan
26376;BME280;30544;42.196;24.336;2023-03-30T07:10:22;99904.56;;;11.66;nan
26376;BME280;30544;42.196;24.336;2023-03-30T07:12:49;99908.91;;;11.73;nan
26376;BME280;30544;42.196;24.336;2023-03-30T07:15:18;99915.03;;;11.82;nan
26376;BME280;30544;42.196;24.336;2023-03-30T07:17:44;99906.91;;;11.92;nan
26376;BME280;30544;42.196;24.336;2023-03-30T07:20:11;99916.59;;;12.01;nan
26376;BME280;30544;42.196;24.336;2023-03-30T07:22:40;99909.47;;;12.05;nan
26376;BME280;30544;42.196;24.336;2023-03-30T07:25:07;99904.91;;;12.11;nan
26376;BME280;30544;42.196;24.336;2023-03-30T07:27:37;99906.81;;;12.34;nan
26376;BME280;30544;42.196;24.336;2023-03-30T07:30:05;99913.13;;;12.29;nan
26376;BME280;30544;42.196;24.336;2023-03-30T07:32:34;99902.47;;;12.38;nan
26376;BME280;30544;42.196;24.336;2023-03-30T07:35:01;99905.13;;;12.33;nan
26376;BME280;30544;42.196;24.336;2023-03-30T07:37:28;99903.16;;;12.57;nan
26376;BME280;30544;42.196;24.336;2023-03-30T07:39:56;99916.81;;;12.58;nan
26376;BME280;30544;42.196;24.336;2023-03-30T07:42:24;99913.94;;;12.53;nan
26376;BME280;30544;42.196;24.336;2023-03-30T07:44:51;99913.59;;;12.50;nan
26376;BME280;30544;42.196;24.336;2023-03-30T07:47:17;99911.75;;;12.55;nan
26376;BME280;30544;42.196;24.336;2023-03-30T07:49:46;99915.38;;;12.56;nan
26376;BME280;30544;42.196;24.336;2023-03-30T07:52:13;99901.63;;;12.49;nan
26376;BME280;30544;42.196;24.336;2023-03-30T07:54:39;99918.31;;;12.38;nan
26376;BME280;30544;42.196;24.336;2023-03-30T07:57:08;99912.63;;;12.32;nan
26376;BME280;30544;42.196;24.336;2023-03-30T07:59:36;99910.69;;;12.21;nan
26376;BME280;30544;42.196;24.336;2023-03-30T08:02:03;99911.66;;;12.03;nan
26376;BME280;30544;42.196;24.336;2023-03-30T08:04:31;99909.59;;;11.99;nan
26376;BME280;30544;42.196;24.336;2023-03-30T08:07:00;99907.06;;;12.21;nan
26376;BME280;30544;42.196;24.336;2023-03-30T08:09:27;99905.88;;;12.17;nan
26376;BME280;30544;42.196;24.336;2023-03-30T08:11:55;99894.88;;;12.10;nan
26376;BME280;30544;42.196;24.336;2023-03-30T08:14:21;99902.34;;;12.21;nan
26376;BME280;30544;42.196;24.336;2023-03-30T08:16:50;99905.34;;;12.08;nan
26376;BME280;30544;42.196;24.336;2023-03-30T08:19:17;99899.94;;;12.13;nan
26376;BME280;30544;42.196;24.336;2023-03-30T08:21:44;99903.41;;;11.85;nan
26376;BME280;30544;42.196;24.336;2023-03-30T08:24:12;99900.78;;;12.02;nan
26376;BME280;30544;42.196;24.336;2023-03-30T08:26:39;99882.75;;;12.04;nan
26376;BME280;30544;42.196;24.336;2023-03-30T08:29:06;99890.50;;;12.14;nan
26376;BME280;30544;42.196;24.336;2023-03-30T08:31:33;99876.38;;;12.16;nan
26376;BME280;30544;42.196;24.336;2023-03-30T08:34:01;99878.31;;;12.15;nan
26376;BME280;30544;42.196;24.336;2023-03-30T08:36:29;99881.56;;;12.12;nan
26376;BME280;30544;42.196;24.336;2023-03-30T08:38:55;99870.06;;;12.09;nan
26376;BME280;30544;42.196;24.336;2023-03-30T08:44:26;99855.59;;;11.95;nan
26376;BME280;30544;42.196;24.336;2023-03-30T08:46:57;99869.00;;;11.98;nan
26376;BME280;30544;42.196;24.336;2023-03-30T08:49:27;99854.59;;;12.01;nan
26376;BME280;30544;42.196;24.336;2023-03-30T08:52:03;99857.63;;;11.88;nan
26376;BME280;30544;42.196;24.336;2023-03-30T08:54:31;99856.78;;;11.99;nan
26376;BME280;30544;42.196;24.336;2023-03-30T08:57:06;99846.50;;;12.11;nan
26376;BME280;30544;42.196;24.336;2023-03-30T08:59:41;99847.22;;;12.18;nan
26376;BME280;30544;42.196;24.336;2023-03-30T09:02:15;99844.34;;;12.13;nan
26376;BME280;30544;42.196;24.336;2023-03-30T09:05:05;99838.97;;;12.23;nan
26376;BME280;30544;42.196;24.336;2023-03-30T09:07:38;99834.16;;;12.30;nan
26376;BME280;30544;42.196;24.336;2023-03-30T09:10:10;99830.78;;;12.28;nan
26376;BME280;30544;42.196;24.336;2023-03-30T09:12:40;99836.69;;;12.32;nan
26376;BME280;30544;42.196;24.336;2023-03-30T09:15:12;99824.72;;;12.31;nan
26376;BME280;30544;42.196;24.336;2023-03-30T09:17:44;99818.75;;;12.40;nan
26376;BME280;30544;42.196;24.336;2023-03-30T09:20:14;99818.25;;;12.43;nan
26376;BME280;30544;42.196;24.336;2023-03-30T09:22:46;99819.09;;;12.55;nan
26376;BME280;30544;42.196;24.336;2023-03-30T09:25:14;99809.66;;;12.56;nan
26376;BME280;30544;42.196;24.336;2023-03-30T09:27:50;99815.69;;;12.64;nan
26376;BME280;30544;42.196;24.336;2023-03-30T09:30:21;99809.84;;;12.78;nan
26376;BME280;30544;42.196;24.336;2023-03-30T09:32:57;99804.78;;;12.91;nan
26376;BME280;30544;42.196;24.336;2023-03-30T09:35:31;99801.72;;;13.05;nan
26376;BME280;30544;42.196;24.336;2023-03-30T09:38:00;99801.78;;;13.10;nan
26376;BME280;30544;42.196;24.336;2023-03-30T09:40:40;99796.34;;;13.15;nan
26376;BME280;30544;42.196;24.336;2023-03-30T09:43:16;99791.66;;;13.32;nan
26376;BME280;30544;42.196;24.336;2023-03-30T09:45:45;99787.94;;;13.43;nan
26376;BME280;30544;42.196;24.336;2023-03-30T09:48:14;99777.56;;;13.55;nan
26376;BME280;30544;42.196;24.336;2023-03-30T09:50:43;99777.72;;;13.66;nan
26376;BME280;30544;42.196;24.336;2023-03-30T09:53:19;99775.09;;;13.76;nan
26376;BME280;30544;42.196;24.336;2023-03-30T09:55:59;99774.94;;;13.82;nan
26376;BME280;30544;42.196;24.336;2023-03-30T09:58:29;99769.34;;;13.82;nan
26376;BME280;30544;42.196;24.336;2023-03-30T10:01:02;99758.16;;;13.99;nan
26376;BME280;30544;42.196;24.336;2023-03-30T10:03:29;99759.31;;;14.03;nan
26376;BME280;30544;42.196;24.336;2023-03-30T10:06:02;99755.59;;;14.14;nan
26376;BME280;30544;42.196;24.336;2023-03-30T10:08:29;99754.47;;;14.15;nan
26376;BME280;30544;42.196;24.336;2023-03-30T10:10:58;99759.91;;;14.05;nan
26376;BME280;30544;42.196;24.336;2023-03-30T10:13:31;99742.66;;;14.08;nan
26376;BME280;30544;42.196;24.336;2023-03-30T10:16:04;99746.16;;;13.99;nan
26376;BME280;30544;42.196;24.336;2023-03-30T10:18:37;99736.22;;;13.86;nan
26376;BME280;30544;42.196;24.336;2023-03-30T10:21:06;99727.69;;;14.14;nan
26376;BME280;30544;42.196;24.336;2023-03-30T10:23:43;99725.16;;;14.13;nan
26376;BME280;30544;42.196;24.336;2023-03-30T10:26:11;99728.53;;;14.15;nan
26376;BME280;30544;42.196;24.336;2023-03-30T10:28:50;99723.75;;;14.32;nan
26376;BME280;30544;42.196;24.336;2023-03-30T10:31:18;99708.47;;;14.40;nan
26376;BME280;30544;42.196;24.336;2023-03-30T10:33:46;99703.63;;;14.52;nan
26376;BME280;30544;42.196;24.336;2023-03-30T10:36:14;99702.84;;;14.57;nan
26376;BME280;30544;42.196;24.336;2023-03-30T10:38:42;99703.66;;;14.57;nan
26376;BME280;30544;42.196;24.336;2023-03-30T10:41:12;99701.59;;;14.69;nan
26376;BME280;30544;42.196;24.336;2023-03-30T10:43:41;99690.72;;;14.73;nan
26376;BME280;30544;42.196;24.336;2023-03-30T10:46:11;99688.00;;;14.78;nan
26376;BME280;30544;42.196;24.336;2023-03-30T10:48:47;99688.13;;;14.93;nan
26376;BME280;30544;42.196;24.336;2023-03-30T10:51:25;99669.81;;;15.08;nan
26376;BME280;30544;42.196;24.336;2023-03-30T10:53:58;99656.44;;;15.10;nan
26376;BME280;30544;42.196;24.336;2023-03-30T10:56:32;99653.97;;;15.13;nan
26376;BME280;30544;42.196;24.336;2023-03-30T10:59:17;99640.00;;;15.13;nan
26376;BME280;30544;42.196;24.336;2023-03-30T11:01:57;99635.00;;;15.20;nan
26376;BME280;30544;42.196;24.336;2023-03-30T11:04:31;99637.91;;;14.98;nan
26376;BME280;30544;42.196;24.336;2023-03-30T11:07:04;99625.41;;;15.11;nan
26376;BME280;30544;42.196;24.336;2023-03-30T11:09:38;99614.88;;;15.18;nan
26376;BME280;30544;42.196;24.336;2023-03-30T11:12:11;99617.19;;;15.74;nan
26376;BME280;30544;42.196;24.336;2023-03-30T11:14:46;99622.31;;;15.92;nan
26376;BME280;30544;42.196;24.336;2023-03-30T11:17:20;99621.53;;;16.07;nan
26376;BME280;30544;42.196;24.336;2023-03-30T11:19:51;99615.72;;;16.23;nan
26376;BME280;30544;42.196;24.336;2023-03-30T11:22:25;99611.22;;;16.22;nan
26376;BME280;30544;42.196;24.336;2023-03-30T11:24:56;99609.28;;;16.13;nan
26376;BME280;30544;42.196;24.336;2023-03-30T11:27:27;99604.88;;;16.47;nan
26376;BME280;30544;42.196;24.336;2023-03-30T11:30:00;99611.00;;;16.44;nan
26376;BME280;30544;42.196;24.336;2023-03-30T11:32:38;99597.66;;;16.82;nan
26376;BME280;30544;42.196;24.336;2023-03-30T11:35:13;99585.88;;;16.95;nan
26376;BME280;30544;42.196;24.336;2023-03-30T11:37:46;99581.09;;;17.06;nan
26376;BME280;30544;42.196;24.336;2023-03-30T11:40:19;99581.97;;;17.01;nan
26376;BME280;30544;42.196;24.336;2023-03-30T11:42:47;99579.41;;;17.20;nan
26376;BME280;30544;42.196;24.336;2023-03-30T11:45:37;99572.16;;;17.04;nan
26376;BME280;30544;42.196;24.336;2023-03-30T11:48:19;99570.69;;;17.37;nan
26376;BME280;30544;42.196;24.336;2023-03-30T11:51:03;99561.13;;;17.43;nan
26376;BME280;30544;42.196;24.336;2023-03-30T11:53:49;99554.09;;;17.56;nan
26376;BME280;30544;42.196;24.336;2023-03-30T11:56:26;99552.09;;;17.71;nan
26376;BME280;30544;42.196;24.336;2023-03-30T11:59:01;99554.59;;;17.83;nan
26376;BME280;30544;42.196;24.336;2023-03-30T12:01:44;99547.88;;;17.74;nan
26376;BME280;30544;42.196;24.336;2023-03-30T12:04:15;99542.78;;;17.86;nan
26376;BME280;30544;42.196;24.336;2023-03-30T12:06:50;99541.63;;;17.97;nan
26376;BME280;30544;42.196;24.336;2023-03-30T12:09:25;99540.78;;;17.92;nan
26376;BME280;30544;42.196;24.336;2023-03-30T12:11:56;99533.56;;;17.81;nan
26376;BME280;30544;42.196;24.336;2023-03-30T12:14:32;99537.78;;;17.73;nan
26376;BME280;30544;42.196;24.336;2023-03-30T12:17:06;99531.34;;;17.62;nan
26376;BME280;30544;42.196;24.336;2023-03-30T12:19:40;99544.66;;;18.06;nan
26376;BME280;30544;42.196;24.336;2023-03-30T12:22:22;99524.41;;;18.09;nan
26376;BME280;30544;42.196;24.336;2023-03-30T12:24:56;99521.84;;;18.13;nan
26376;BME280;30544;42.196;24.336;2023-03-30T12:27:25;99518.50;;;18.11;nan
26376;BME280;30544;42.196;24.336;2023-03-30T12:29:53;99522.69;;;18.13;nan
26376;BME280;30544;42.196;24.336;2023-03-30T12:32:37;99510.81;;;18.31;nan
26376;BME280;30544;42.196;24.336;2023-03-30T12:38:04;99505.34;;;18.45;nan
26376;BME280;30544;42.196;24.336;2023-03-30T12:40:31;99510.28;;;18.24;nan
26376;BME280;30544;42.196;24.336;2023-03-30T12:43:06;99501.41;;;18.46;nan
26376;BME280;30544;42.196;24.336;2023-03-30T12:45:47;99502.25;;;18.81;nan
26376;BME280;30544;42.196;24.336;2023-03-30T12:48:31;99503.25;;;18.61;nan
26376;BME280;30544;42.196;24.336;2023-03-30T12:51:10;99500.03;;;18.83;nan
26376;BME280;30544;42.196;24.336;2023-03-30T12:54:01;99490.69;;;18.87;nan
26376;BME280;30544;42.196;24.336;2023-03-30T12:56:36;99488.34;;;19.00;nan
26376;BME280;30544;42.196;24.336;2023-03-30T12:59:21;99481.88;;;18.99;nan
26376;BME280;30544;42.196;24.336;2023-03-30T13:02:08;99495.94;;;18.70;nan
26376;BME280;30544;42.196;24.336;2023-03-30T13:04:45;99494.72;;;18.42;nan
26376;BME280;30544;42.196;24.336;2023-03-30T13:07:16;99487.13;;;18.43;nan
26376;BME280;30544;42.196;24.336;2023-03-30T13:09:55;99479.75;;;18.13;nan
26376;BME280;30544;42.196;24.336;2023-03-30T13:12:37;99476.00;;;18.32;nan
26376;BME280;30544;42.196;24.336;2023-03-30T13:15:32;99478.63;;;18.53;nan
26376;BME280;30544;42.196;24.336;2023-03-30T13:18:01;99468.16;;;18.63;nan
26376;BME280;30544;42.196;24.336;2023-03-30T13:20:32;99455.63;;;18.85;nan
26376;BME280;30544;42.196;24.336;2023-03-30T13:23:24;99468.59;;;19.05;nan
26376;BME280;30544;42.196;24.336;2023-03-30T13:26:01;99450.22;;;18.88;nan
26376;BME280;30544;42.196;24.336;2023-03-30T13:28:45;99447.69;;;19.16;nan
26376;BME280;30544;42.196;24.336;2023-03-30T13:31:33;99446.13;;;19.05;nan
26376;BME280;30544;42.196;24.336;2023-03-30T13:34:13;99450.75;;;18.67;nan
26376;BME280;30544;42.196;24.336;2023-03-30T13:36:49;99435.84;;;18.66;nan
26376;BME280;30544;42.196;24.336;2023-03-30T13:39:21;99423.84;;;18.55;nan
26376;BME280;30544;42.196;24.336;2023-03-30T13:42:00;99428.88;;;18.24;nan
26376;BME280;30544;42.196;24.336;2023-03-30T13:44:37;99430.13;;;18.42;nan
26376;BME280;30544;42.196;24.336;2023-03-30T13:47:28;99413.22;;;18.18;nan